Dacono, Colorado
Current Conditions -  °F | °C
As of 4:35 PM on Thursday 18 Dec 2014 (Local Time) from KLMO Reporting Station
Overcast Overcast  
Wind Chill: 39°   Ceiling: 10000
Heat Index: 39°   Visibility: 10mi
Dew Point: 26°   Wind: 0mph
Humidity: 59%   Direction: NA
Pressure: 30.06"   Gusts: NA
Location:  40.08°N, 104.94°W
Report Text: KLMO 182335Z AUTO 00000KT 10SM BKN100 OVC110 04/M03 A3006 RMK AO2 T00401033
Loading
Personal Weather Stations






























Interactive Weather Map New forecast layout! Learn more

10-Day Weather Forecast

Advertisements
Track Severe Weather on mobile